Aviation weather information 2023-01-31 16:16 UTC

TAF(FCEO32)
FCEO32 EETN 311300 CCA
TAF COR EEKA 311312Z 3114/3120 27010KT 9999 SCT020 PROB30 TEMPO
     3114/3117 BKN015 BECMG 3119/3120 19006KT=
FCEO32 EETN 311500
TAF EEKE 311500Z 3116/3122 24010KT 9999 SCT025 PROB40 TEMPO
     3118/3122 BKN015=

TAF(FTEO31)
FTEO31 EETN 311100
TAF EETN 311130Z 3112/0112 28015G25KT 9999 BKN020 PROB40 TEMPO
     3114/3118 BKN010 SCT015CB BECMG 3120/3122 20007KT BECMG
     3122/3124 BKN008 OVC015 TEMPO 0100/0103 3000 BR BKN004=

AIREP(UAEO60)
UAEO60 EETN 302224
ARS A360D SEV ICE OBS AT 2205Z E5925E02510 3000/5000FT=

Weather observation (METAR/SPECI)
METAR EETN 311550Z 25010KT 9999 BKN025 01/M02 Q0992 NOSIG=
METAR EEEI 311550Z 24010KT 9999 FEW023 M00/M02 Q0993 NOSIG=
METAR EETU 311550Z 24011KT 9999 FEW040 01/M03 Q0994=
METAR EEPU 311550Z AUTO 24007KT 9999 NCD 01/M02 Q0995=
METAR EEKE 311550Z 23004KT 180V270 CAVOK 01/M01 Q0995=
METAR EEKA 311550Z 28005KT 240V310 CAVOK 01/M03 Q0994=